createdAt,value
2022-12-24T00:01:37.968Z,38.01
2022-12-24T00:04:06.742Z,38.11
2022-12-24T00:06:35.291Z,37.99
2022-12-24T00:09:04.613Z,38.02
2022-12-24T00:11:33.374Z,38.02
2022-12-24T00:14:01.978Z,38.01
2022-12-24T00:16:32.023Z,38.01
2022-12-24T00:19:00.676Z,38.06
2022-12-24T00:21:29.397Z,38.21
2022-12-24T00:23:58.137Z,38.06
2022-12-24T00:26:26.752Z,38.01
2022-12-24T00:28:55.296Z,37.94
2022-12-24T00:31:23.996Z,37.92
2022-12-24T00:33:53.930Z,37.96
2022-12-24T00:36:22.760Z,38.01
2022-12-24T00:38:51.415Z,38.07
2022-12-24T00:41:26.138Z,38.19
2022-12-24T00:43:55.365Z,38.08
2022-12-24T00:46:24.484Z,38.11
2022-12-24T00:48:54.627Z,38.07
2022-12-24T00:51:23.766Z,37.92
2022-12-24T00:53:52.817Z,38.01
2022-12-24T00:56:21.596Z,37.96
2022-12-24T00:58:50.556Z,38.00
2022-12-24T01:01:19.340Z,38.00
2022-12-24T01:03:48.331Z,37.94
2022-12-24T01:06:19.389Z,38.05
2022-12-24T01:08:48.113Z,38.01
2022-12-24T01:11:16.633Z,38.03
2022-12-24T01:13:45.487Z,38.02
2022-12-24T01:16:16.978Z,37.99
2022-12-24T01:18:45.886Z,38.09
2022-12-24T01:21:14.470Z,37.92
2022-12-24T01:23:44.672Z,37.91
2022-12-24T01:26:15.522Z,38.01
2022-12-24T01:28:44.052Z,38.06
2022-12-24T01:31:14.252Z,37.95
2022-12-24T01:33:43.037Z,38.02
2022-12-24T01:36:11.970Z,38.05
2022-12-24T01:38:42.963Z,37.91
2022-12-24T01:41:36.268Z,37.97
2022-12-24T01:44:33.111Z,38.02
2022-12-24T01:47:09.944Z,38.07
2022-12-24T01:49:39.871Z,37.99
2022-12-24T01:52:10.563Z,38.09
2022-12-24T01:54:42.709Z,37.97
2022-12-24T01:57:14.807Z,38.02
2022-12-24T01:59:43.827Z,38.09
2022-12-24T02:02:12.642Z,38.05
2022-12-24T02:04:43.972Z,37.95
2022-12-24T02:07:12.712Z,38.15
2022-12-24T02:09:43.914Z,38.02
2022-12-24T02:12:12.563Z,38.13
2022-12-24T02:14:41.394Z,38.07
2022-12-24T02:17:17.893Z,37.88
2022-12-24T02:20:23.592Z,37.88
2022-12-24T02:23:08.729Z,38.08
2022-12-24T02:25:59.176Z,38.03
2022-12-24T02:28:42.763Z,38.01
2022-12-24T02:31:15.315Z,38.06
2022-12-24T02:33:46.472Z,38.07
2022-12-24T02:36:18.802Z,38.05
2022-12-24T02:38:49.776Z,38.11
2022-12-24T02:41:20.780Z,38.08
2022-12-24T02:43:49.844Z,38.06
2022-12-24T02:46:23.422Z,38.06
2022-12-24T02:48:52.037Z,38.06
2022-12-24T02:51:24.183Z,37.99
2022-12-24T02:53:53.099Z,37.89
2022-12-24T02:56:34.594Z,37.95
2022-12-24T02:59:39.089Z,38.05
2022-12-24T03:02:19.753Z,37.96
2022-12-24T03:04:52.742Z,38.09
2022-12-24T03:07:25.200Z,37.96
2022-12-24T03:10:01.875Z,38.11
2022-12-24T03:12:33.394Z,38.08
2022-12-24T03:15:02.054Z,38.01
2022-12-24T03:17:35.970Z,38.13
2022-12-24T03:20:04.906Z,37.93
2022-12-24T03:22:34.048Z,38.15
2022-12-24T03:25:03.055Z,38.11
2022-12-24T03:27:32.459Z,38.09
2022-12-24T03:30:01.456Z,38.09
2022-12-24T03:32:31.313Z,38.03
2022-12-24T03:35:01.528Z,37.96
2022-12-24T03:37:30.156Z,38.05
2022-12-24T03:39:58.776Z,38.19
2022-12-24T03:42:27.319Z,38.11
2022-12-24T03:44:56.040Z,38.07
2022-12-24T03:47:24.495Z,38.06
2022-12-24T03:49:53.102Z,37.97
2022-12-24T03:52:23.157Z,38.01
2022-12-24T03:54:51.672Z,38.06
2022-12-24T03:57:20.394Z,38.01
2022-12-24T03:59:49.570Z,38.14
2022-12-24T04:02:18.155Z,38.06
2022-12-24T04:04:46.752Z,38.10
2022-12-24T04:07:15.379Z,37.99
2022-12-24T04:09:45.355Z,38.16
2022-12-24T04:12:13.980Z,38.07
2022-12-24T04:14:42.713Z,38.07
2022-12-24T04:17:11.222Z,38.05
2022-12-24T04:19:39.798Z,37.92
2022-12-24T04:22:08.619Z,37.96
2022-12-24T04:24:37.144Z,38.02
2022-12-24T04:27:07.015Z,38.01
2022-12-24T04:29:35.677Z,38.01
2022-12-24T04:32:04.434Z,37.91
2022-12-24T04:34:33.333Z,38.08
2022-12-24T04:37:01.952Z,38.04
2022-12-24T04:39:30.490Z,37.99
2022-12-24T04:41:59.004Z,38.03
2022-12-24T04:44:29.099Z,38.05
2022-12-24T04:46:57.630Z,38.10
2022-12-24T04:49:26.373Z,38.08
2022-12-24T04:51:55.220Z,37.95
2022-12-24T04:54:23.835Z,37.94
2022-12-24T04:56:52.389Z,37.97
2022-12-24T04:59:21.014Z,38.06
2022-12-24T05:01:51.267Z,38.05
2022-12-24T05:04:19.843Z,38.09
2022-12-24T05:06:48.710Z,38.06
2022-12-24T05:09:17.293Z,38.05
2022-12-24T05:11:45.918Z,37.96
2022-12-24T05:14:14.584Z,38.06
2022-12-24T05:16:43.974Z,38.01
2022-12-24T05:19:14.805Z,37.84
2022-12-24T05:21:43.754Z,38.08
2022-12-24T05:24:30.417Z,38.00
2022-12-24T05:26:59.251Z,38.00
2022-12-24T05:29:27.842Z,38.11
2022-12-24T05:31:56.514Z,38.15
2022-12-24T05:34:26.572Z,37.96
2022-12-24T05:36:55.117Z,38.08
2022-12-24T05:39:23.735Z,38.08
2022-12-24T05:41:52.302Z,38.13
2022-12-24T05:44:20.950Z,38.07
2022-12-24T05:46:49.553Z,38.02
2022-12-24T05:49:18.382Z,38.13
2022-12-24T05:51:48.248Z,37.97
2022-12-24T05:54:16.780Z,37.95
2022-12-24T05:56:45.375Z,38.01
2022-12-24T05:59:14.092Z,38.04
2022-12-24T06:01:45.757Z,38.04
2022-12-24T06:04:14.465Z,37.95
2022-12-24T06:06:43.047Z,38.03
2022-12-24T06:09:13.160Z,38.08
2022-12-24T06:11:41.860Z,38.07
2022-12-24T06:14:10.468Z,38.05
2022-12-24T06:16:39.042Z,38.09
2022-12-24T06:19:07.756Z,38.07
2022-12-24T06:21:36.387Z,37.95
2022-12-24T06:24:05.733Z,37.91
2022-12-24T06:26:36.004Z,38.13
2022-12-24T06:29:04.583Z,37.94
2022-12-24T06:31:33.391Z,38.09
2022-12-24T06:34:02.087Z,38.07
2022-12-24T06:36:30.804Z,38.08
2022-12-24T06:38:59.295Z,38.02
2022-12-24T06:41:27.905Z,38.00
2022-12-24T06:43:57.807Z,38.07
2022-12-24T06:46:26.534Z,38.10
2022-12-24T06:48:55.973Z,38.16
2022-12-24T06:51:24.540Z,37.93
2022-12-24T06:53:53.106Z,38.25
2022-12-24T06:56:21.995Z,38.02
2022-12-24T06:58:50.563Z,38.09
2022-12-24T07:01:21.349Z,38.05
2022-12-24T07:03:50.137Z,37.97
2022-12-24T07:06:21.039Z,38.06
2022-12-24T07:08:49.656Z,38.02
2022-12-24T07:11:18.678Z,38.07
2022-12-24T07:13:48.103Z,37.94
2022-12-24T07:16:17.713Z,38.11
2022-12-24T07:18:47.823Z,38.07
2022-12-24T07:21:16.371Z,38.04
2022-12-24T07:23:45.065Z,38.13
2022-12-24T07:26:13.578Z,38.02
2022-12-24T07:28:42.095Z,38.14
2022-12-24T07:31:10.762Z,38.10
2022-12-24T07:33:39.339Z,38.13
2022-12-24T07:36:11.514Z,38.01
2022-12-24T07:38:40.227Z,38.14
2022-12-24T07:41:08.743Z,37.99
2022-12-24T07:43:37.267Z,38.09
2022-12-24T07:46:06.321Z,38.18
2022-12-24T07:48:36.858Z,38.04
2022-12-24T07:51:05.811Z,37.98
2022-12-24T07:53:35.801Z,38.02
2022-12-24T07:56:10.500Z,38.15
2022-12-24T07:58:41.627Z,38.16
2022-12-24T08:01:10.606Z,38.18
2022-12-24T08:03:39.385Z,38.08
2022-12-24T08:06:08.659Z,38.17
2022-12-24T08:08:38.735Z,38.15
2022-12-24T08:11:08.203Z,38.06
2022-12-24T08:13:36.928Z,38.06
2022-12-24T08:16:06.194Z,38.17
2022-12-24T08:18:34.928Z,38.09
2022-12-24T08:21:03.740Z,38.20
2022-12-24T08:23:32.267Z,38.15
2022-12-24T08:26:02.353Z,38.06
2022-12-24T08:28:31.179Z,38.09
2022-12-24T08:31:00.348Z,38.18
2022-12-24T08:33:28.869Z,38.29
2022-12-24T08:35:57.948Z,38.18
2022-12-24T08:38:26.487Z,38.23
2022-12-24T08:40:55.202Z,38.17
2022-12-24T08:43:26.762Z,38.30
2022-12-24T08:45:55.555Z,38.07
2022-12-24T08:48:24.162Z,38.17
2022-12-24T08:50:52.900Z,38.22
2022-12-24T08:53:21.444Z,38.22
2022-12-24T08:55:55.641Z,38.09
2022-12-24T08:58:26.333Z,38.31
2022-12-24T09:00:55.072Z,38.19
2022-12-24T09:03:27.900Z,38.16
2022-12-24T09:05:56.932Z,38.13
2022-12-24T09:08:25.695Z,38.15
2022-12-24T09:10:54.210Z,38.25
2022-12-24T09:13:22.835Z,38.30
2022-12-24T09:15:56.300Z,38.16
2022-12-24T09:18:25.139Z,38.26
2022-12-24T09:20:57.270Z,38.28
2022-12-24T09:23:26.400Z,38.31
2022-12-24T09:25:54.958Z,38.19
2022-12-24T09:28:23.943Z,38.15
2022-12-24T09:31:01.110Z,38.18
2022-12-24T09:33:29.936Z,38.20
2022-12-24T09:35:58.911Z,38.32
2022-12-24T09:38:27.519Z,38.34
2022-12-24T09:40:56.518Z,38.20
2022-12-24T09:43:27.242Z,38.20
2022-12-24T09:46:07.658Z,38.23
2022-12-24T09:48:38.614Z,38.20
2022-12-24T09:51:09.499Z,38.35
2022-12-24T09:53:41.326Z,38.27
2022-12-24T09:56:14.782Z,38.37
2022-12-24T09:58:46.431Z,38.29
2022-12-24T10:01:17.899Z,38.21
2022-12-24T10:03:46.957Z,38.28
2022-12-24T10:06:17.997Z,38.02
2022-12-24T10:08:59.446Z,38.20
2022-12-24T10:11:32.814Z,38.16
2022-12-24T10:14:13.347Z,38.22
2022-12-24T10:16:49.875Z,38.23
2022-12-24T10:19:21.553Z,38.13
2022-12-24T10:22:00.354Z,38.26
2022-12-24T10:24:32.720Z,38.27
2022-12-24T10:27:03.718Z,38.26
2022-12-24T10:29:35.070Z,38.19
2022-12-24T10:32:17.468Z,38.28
2022-12-24T10:34:47.671Z,38.19
2022-12-24T10:37:17.914Z,38.17
2022-12-24T10:39:46.518Z,38.30
2022-12-24T10:42:15.120Z,38.31
2022-12-24T10:44:43.685Z,38.31
2022-12-24T10:47:13.966Z,38.14
2022-12-24T10:49:45.993Z,38.19
2022-12-24T10:52:16.344Z,38.12
2022-12-24T10:55:08.729Z,38.35
2022-12-24T10:57:37.609Z,38.28
2022-12-24T11:00:07.935Z,38.28
2022-12-24T11:02:39.260Z,38.42
2022-12-24T11:05:11.855Z,38.29
2022-12-24T11:07:40.669Z,38.15
2022-12-24T11:10:14.660Z,38.28
2022-12-24T11:13:12.531Z,38.16
2022-12-24T11:15:38.604Z,38.30
2022-12-24T11:18:15.695Z,38.32
2022-12-24T11:20:44.251Z,38.26
2022-12-24T11:23:15.817Z,38.34
2022-12-24T11:25:44.437Z,38.32
2022-12-24T11:28:14.334Z,38.36
2022-12-24T11:30:43.019Z,38.28
2022-12-24T11:33:21.715Z,38.31
2022-12-24T11:35:58.462Z,38.39
2022-12-24T11:38:27.821Z,38.46
2022-12-24T11:41:11.401Z,38.51
2022-12-24T11:43:46.535Z,38.33
2022-12-24T11:46:22.218Z,38.60
2022-12-24T11:49:08.360Z,38.50
2022-12-24T11:51:37.452Z,38.45
2022-12-24T11:54:11.016Z,38.45
2022-12-24T11:56:42.040Z,38.51
2022-12-24T11:59:18.963Z,38.46
2022-12-24T12:01:54.724Z,38.44
2022-12-24T12:04:27.482Z,38.49
2022-12-24T12:06:58.574Z,38.33
2022-12-24T12:09:31.550Z,38.49
2022-12-24T12:12:03.086Z,38.46
2022-12-24T12:14:34.209Z,38.51
2022-12-24T12:17:06.092Z,38.44
2022-12-24T12:19:40.845Z,38.39
2022-12-24T12:22:17.096Z,38.52
2022-12-24T12:24:48.683Z,38.41
2022-12-24T12:27:22.331Z,38.49
2022-12-24T12:29:53.921Z,38.44
2022-12-24T12:32:28.552Z,38.49
2022-12-24T12:35:05.539Z,38.53
2022-12-24T12:37:37.613Z,38.56
2022-12-24T12:40:12.971Z,38.47
2022-12-24T12:42:41.609Z,38.45
2022-12-24T12:45:34.481Z,38.50
2022-12-24T12:48:21.086Z,38.55
2022-12-24T12:50:54.129Z,38.51
2022-12-24T12:53:35.647Z,38.54
2022-12-24T12:56:10.185Z,38.59
2022-12-24T12:58:41.112Z,38.45
2022-12-24T13:01:14.727Z,38.43
2022-12-24T13:04:28.855Z,38.51
2022-12-24T13:07:44.445Z,38.60
2022-12-24T13:10:38.630Z,38.64
2022-12-24T13:13:43.628Z,38.64
2022-12-24T13:16:40.423Z,38.45
2022-12-24T13:19:23.880Z,38.54
2022-12-24T13:21:52.656Z,38.54
2022-12-24T13:24:26.074Z,38.44
2022-12-24T13:27:06.289Z,38.54
2022-12-24T13:29:46.434Z,38.52
2022-12-24T13:32:50.655Z,38.60
2022-12-24T13:35:38.223Z,38.54
2022-12-24T13:38:44.302Z,38.60
2022-12-24T13:41:55.826Z,38.53
2022-12-24T13:44:33.127Z,38.56
2022-12-24T13:47:24.239Z,38.61
2022-12-24T13:49:57.025Z,38.54
2022-12-24T13:52:28.837Z,38.57
2022-12-24T13:55:16.639Z,38.64
2022-12-24T13:57:54.373Z,38.44
2022-12-24T14:00:44.407Z,38.50
2022-12-24T14:03:25.858Z,38.66
2022-12-24T14:05:56.336Z,38.58
2022-12-24T14:08:34.879Z,38.48
2022-12-24T14:11:11.412Z,38.55
2022-12-24T14:14:29.148Z,38.45
2022-12-24T14:16:59.317Z,38.43
2022-12-24T14:19:35.477Z,38.49
2022-12-24T14:22:20.897Z,38.45
2022-12-24T14:24:54.825Z,38.54
2022-12-24T14:27:26.737Z,38.48
2022-12-24T14:30:00.595Z,38.45
2022-12-24T14:32:36.207Z,38.47
2022-12-24T14:35:10.449Z,38.65
2022-12-24T14:37:39.678Z,38.57
2022-12-24T14:40:09.888Z,38.58
2022-12-24T14:42:43.206Z,38.62
2022-12-24T14:45:24.156Z,38.61
2022-12-24T14:47:57.887Z,38.65
2022-12-24T14:50:56.553Z,38.70
2022-12-24T14:53:34.620Z,38.63
2022-12-24T14:56:11.370Z,38.57
2022-12-24T14:58:40.928Z,38.67
2022-12-24T15:01:23.846Z,38.65
2022-12-24T15:04:03.804Z,38.35
2022-12-24T15:06:35.080Z,38.64
2022-12-24T15:09:03.714Z,38.64
2022-12-24T15:11:32.413Z,38.68
2022-12-24T15:14:01.411Z,38.62
2022-12-24T15:16:33.647Z,38.68
2022-12-24T15:19:04.823Z,38.62
2022-12-24T15:21:34.827Z,38.68
2022-12-24T15:24:03.477Z,38.73
2022-12-24T15:26:35.148Z,38.68
2022-12-24T15:29:15.433Z,38.72
2022-12-24T15:31:45.474Z,38.71
2022-12-24T15:34:27.552Z,38.61
2022-12-24T15:37:04.040Z,38.66
2022-12-24T15:39:32.654Z,38.73
2022-12-24T15:42:18.168Z,38.59
2022-12-24T15:44:56.966Z,38.55
2022-12-24T15:47:30.333Z,38.67
2022-12-24T15:49:59.037Z,38.69
2022-12-24T15:52:28.148Z,38.62
2022-12-24T15:54:58.354Z,38.79
2022-12-24T15:57:31.676Z,38.71
2022-12-24T16:00:01.366Z,38.62
2022-12-24T16:02:40.312Z,38.68
2022-12-24T16:05:37.256Z,38.62
2022-12-24T16:08:31.663Z,38.68
2022-12-24T16:11:19.287Z,38.67
2022-12-24T16:14:02.639Z,38.64
2022-12-24T16:16:37.255Z,38.71
2022-12-24T16:19:08.500Z,38.69
2022-12-24T16:21:38.248Z,38.71
2022-12-24T16:24:11.956Z,38.72
2022-12-24T16:26:41.411Z,38.72
2022-12-24T16:29:11.350Z,38.85
2022-12-24T16:31:46.496Z,38.62
2022-12-24T16:34:17.239Z,38.56
2022-12-24T16:36:47.120Z,38.62
2022-12-24T16:39:25.852Z,38.71
2022-12-24T16:42:12.152Z,38.74
2022-12-24T16:44:41.184Z,38.61
2022-12-24T16:47:13.430Z,38.70
2022-12-24T16:49:43.528Z,38.60
2022-12-24T16:52:18.063Z,38.59
2022-12-24T16:54:46.680Z,38.69
2022-12-24T16:57:15.322Z,38.66
2022-12-24T16:59:43.864Z,38.70
2022-12-24T17:02:15.071Z,38.72
2022-12-24T17:04:45.526Z,38.80
2022-12-24T17:07:14.564Z,38.76
2022-12-24T17:09:43.209Z,38.60
2022-12-24T17:12:11.952Z,38.62
2022-12-24T17:14:40.692Z,38.38
2022-12-24T17:17:09.924Z,38.69
2022-12-24T17:19:38.475Z,38.68
2022-12-24T17:22:08.738Z,38.69
2022-12-24T17:24:37.369Z,38.76
2022-12-24T17:27:05.986Z,38.58
2022-12-24T17:29:34.864Z,38.67
2022-12-24T17:32:03.589Z,38.67
2022-12-24T17:34:32.130Z,38.66
2022-12-24T17:37:01.045Z,38.61
2022-12-24T17:39:31.043Z,38.79
2022-12-24T17:41:59.867Z,38.59
2022-12-24T17:44:28.490Z,38.66
2022-12-24T17:46:57.127Z,38.74
2022-12-24T17:49:25.851Z,38.70
2022-12-24T17:51:54.596Z,38.51
2022-12-24T17:54:23.130Z,38.40
2022-12-24T17:56:53.200Z,38.74
2022-12-24T17:59:22.187Z,38.69
2022-12-24T18:01:50.853Z,38.60
2022-12-24T18:04:19.666Z,38.62
2022-12-24T18:06:50.749Z,38.62
2022-12-24T18:09:19.907Z,38.69
2022-12-24T18:11:48.694Z,38.76
2022-12-24T18:14:18.710Z,38.69
2022-12-24T18:16:49.029Z,38.66
2022-12-24T18:19:17.800Z,38.67
2022-12-24T18:21:46.573Z,38.72
2022-12-24T18:24:15.217Z,38.68
2022-12-24T18:26:45.075Z,38.75
2022-12-24T18:29:13.712Z,38.66
2022-12-24T18:31:43.734Z,38.68
2022-12-24T18:34:14.547Z,38.60
2022-12-24T18:36:43.202Z,38.66
2022-12-24T18:39:11.828Z,38.59
2022-12-24T18:41:40.698Z,38.70
2022-12-24T18:44:10.326Z,38.72
2022-12-24T18:46:39.273Z,38.72
2022-12-24T18:49:11.150Z,38.61
2022-12-24T18:51:39.817Z,38.53
2022-12-24T18:54:08.653Z,38.72
2022-12-24T18:56:37.212Z,38.76
2022-12-24T18:59:06.095Z,38.61
2022-12-24T19:01:35.772Z,38.71
2022-12-24T19:04:04.638Z,38.68
2022-12-24T19:06:34.647Z,38.60
2022-12-24T19:09:03.213Z,38.69
2022-12-24T19:11:33.055Z,38.52
2022-12-24T19:14:02.169Z,38.68
2022-12-24T19:16:31.791Z,38.73
2022-12-24T19:19:00.643Z,38.62
2022-12-24T19:21:29.333Z,38.63
2022-12-24T19:23:59.244Z,38.55
2022-12-24T19:26:27.813Z,38.57
2022-12-24T19:28:56.582Z,38.66
2022-12-24T19:31:26.643Z,38.67
2022-12-24T19:33:56.575Z,38.69
2022-12-24T19:36:26.719Z,38.81
2022-12-24T19:38:55.276Z,38.73
2022-12-24T19:41:26.435Z,38.67
2022-12-24T19:43:56.431Z,38.58
2022-12-24T19:46:26.966Z,38.62
2022-12-24T19:48:57.181Z,38.45
2022-12-24T19:51:26.011Z,38.69
2022-12-24T19:53:55.560Z,38.55
2022-12-24T19:56:26.447Z,38.58
2022-12-24T19:58:55.698Z,38.73
2022-12-24T20:01:26.072Z,38.67
2022-12-24T20:03:54.969Z,38.62
2022-12-24T20:06:25.652Z,38.64
2022-12-24T20:08:54.269Z,38.66
2022-12-24T20:11:24.658Z,38.81
2022-12-24T20:13:53.268Z,38.65
2022-12-24T20:16:22.855Z,38.62
2022-12-24T20:18:54.747Z,38.76
2022-12-24T20:21:23.732Z,38.61
2022-12-24T20:23:52.559Z,38.69
2022-12-24T20:26:22.829Z,38.65
2022-12-24T20:28:53.702Z,38.60
2022-12-24T20:31:24.364Z,38.73
2022-12-24T20:33:53.123Z,38.58
2022-12-24T20:36:22.993Z,38.81
2022-12-24T20:38:51.803Z,38.89
2022-12-24T20:41:22.569Z,38.58
2022-12-24T20:43:52.647Z,38.56
2022-12-24T20:46:23.601Z,38.72
2022-12-24T20:48:52.433Z,38.70
2022-12-24T20:51:24.963Z,38.76
2022-12-24T20:53:54.651Z,38.69
2022-12-24T20:56:23.533Z,38.62
2022-12-24T20:58:53.581Z,38.73
2022-12-24T21:01:25.015Z,38.71
2022-12-24T21:03:54.031Z,38.63
2022-12-24T21:06:23.452Z,38.79
2022-12-24T21:08:52.866Z,38.71
2022-12-24T21:11:39.355Z,38.70
2022-12-24T21:14:09.714Z,38.63
2022-12-24T21:16:38.569Z,38.64
2022-12-24T21:19:08.062Z,38.75
2022-12-24T21:21:37.079Z,38.74
2022-12-24T21:24:06.518Z,38.69
2022-12-24T21:26:35.241Z,38.69
2022-12-24T21:29:04.859Z,38.67
2022-12-24T21:31:34.969Z,38.69
2022-12-24T21:34:03.862Z,38.68
2022-12-24T21:36:32.481Z,38.74
2022-12-24T21:39:01.188Z,38.75
2022-12-24T21:41:30.119Z,38.65
2022-12-24T21:44:01.461Z,38.62
2022-12-24T21:46:33.046Z,38.79
2022-12-24T21:49:21.133Z,38.75
2022-12-24T21:51:49.901Z,38.68
2022-12-24T21:54:23.557Z,38.56
2022-12-24T21:57:09.724Z,38.68
2022-12-24T21:59:38.473Z,38.71
2022-12-24T22:02:07.422Z,38.58
2022-12-24T22:04:37.622Z,38.66
2022-12-24T22:07:23.969Z,38.67
2022-12-24T22:10:13.059Z,38.66
2022-12-24T22:12:41.667Z,38.58
2022-12-24T22:15:11.639Z,38.70
2022-12-24T22:17:40.245Z,38.67
2022-12-24T22:20:11.815Z,38.62
2022-12-24T22:22:40.592Z,38.73
2022-12-24T22:25:10.185Z,38.59
2022-12-24T22:27:38.786Z,38.69
2022-12-24T22:30:09.501Z,38.70
2022-12-24T22:32:38.133Z,38.68
2022-12-24T22:35:07.617Z,38.73
2022-12-24T22:37:37.659Z,38.53
2022-12-24T22:40:07.961Z,38.73
2022-12-24T22:42:36.615Z,38.66
2022-12-24T22:45:06.069Z,38.66
2022-12-24T22:47:34.762Z,38.61
2022-12-24T22:50:03.567Z,38.58
2022-12-24T22:52:33.545Z,38.65
2022-12-24T22:55:03.705Z,38.65
2022-12-24T22:57:32.534Z,38.51
2022-12-24T23:00:01.111Z,38.68
2022-12-24T23:02:29.887Z,38.68
2022-12-24T23:04:59.364Z,38.54
2022-12-24T23:07:28.506Z,38.67
2022-12-24T23:09:57.871Z,38.54
2022-12-24T23:12:45.599Z,38.62
2022-12-24T23:15:14.167Z,38.62
2022-12-24T23:17:43.739Z,38.64
2022-12-24T23:20:12.997Z,38.59
2022-12-24T23:22:41.783Z,38.66
2022-12-24T23:25:11.175Z,38.69
2022-12-24T23:27:41.434Z,38.57
2022-12-24T23:30:11.400Z,38.60
2022-12-24T23:32:40.191Z,38.62
2022-12-24T23:35:09.816Z,38.58
2022-12-24T23:37:38.639Z,38.58
2022-12-24T23:40:08.873Z,38.68
2022-12-24T23:42:37.425Z,38.66
2022-12-24T23:45:08.974Z,38.57
2022-12-24T23:47:37.707Z,38.64
2022-12-24T23:50:08.182Z,38.78
2022-12-24T23:52:36.855Z,38.72
2022-12-24T23:55:07.238Z,38.61
2022-12-24T23:57:35.962Z,38.54
